Flight Track Log - Related Links

Times and Time Zones

All times are in EDT time to prevent confusion due to time zone crossing. See the N629SA flight status page for this flight to view local times or setup timezone preferences in your user account.

Time Position Orientation Groundspeed Altitude Reporting Facility
EDT Latitude Longitude Course Direction KTS MPH feet Rate Location/Type
Wed 11:35:07 PM 29.0667 -81.1500 132° Southeast 116 133 5,100  Level Orlando TRACON
Wed 11:36:07 PM 29.0500 -81.1167 120° Southeast 114 131 6,000 450 Climbing Orlando TRACON
Wed 11:37:07 PM 29.0333 -81.0833 120° Southeast 151 174 6,000  Level Orlando TRACON
Wed 11:38:00 PM 28.8886 -81.1289 164° South  Level Estimated
Wed 11:38:01 PM 29.0167 -81.0500 120° Southeast 162 186 6,000  Level Orlando TRACON
Wed 11:39:00 PM 28.8627 -81.0957 132° Southeast  Level FlightAware Approximate
Wed 11:39:01 PM 29.0000 -81.0000 111° Southeast 155 178 6,000  Level Orlando TRACON
Wed 11:40:00 PM 28.8368 -81.0626 132° Southeast  Level FlightAware Approximate
Wed 11:40:01 PM 28.9667 -80.9667 139° Southeast 162 186 6,000  Level Orlando TRACON
Wed 11:41:01 PM 28.9167 -80.9500 164° South 160 184 6,000  Level Orlando TRACON
Wed 11:42:01 PM 28.8833 -80.9333 156° South 158 182 6,000  Level Orlando TRACON
Wed 11:43:01 PM 28.8333 -80.9167 164° South 158 182 6,000  Level Orlando TRACON
Wed 11:44:01 PM 28.8000 -80.9000 156° South 157 181 6,000  Level Orlando TRACON
Wed 11:45:01 PM 28.7500 -80.8833 164° South 158 182 6,000  Level Orlando TRACON
Wed 11:46:01 PM 28.7167 -80.8833 180° South 157 181 6,000  Level Orlando TRACON
Wed 11:47:01 PM 28.6667 -80.8667 164° South 157 181 6,000  Level Orlando TRACON
Wed 11:48:07 PM 28.6167 -80.8333 150° Southeast 159 183 6,000  Level Orlando TRACON
Wed 11:49:07 PM 28.5833 -80.8167 156° South 159 183 6,000  Level Orlando TRACON
Wed 11:50:07 PM 28.5333 -80.8000 164° South 162 186 6,000  Level Orlando TRACON
Wed 11:51:01 PM 28.5000 -80.8000 180° South 161 185 6,000  Level Orlando TRACON
Wed 11:52:01 PM 28.4667 -80.7667 139° Southeast 161 185 6,000  Level Orlando TRACON
Wed 11:53:02 PM 28.4167 -80.7500 164° South 160 184 6,000  Level Orlando TRACON
Wed 11:54:02 PM 28.3833 -80.7333 156° South 160 184 6,000  Level Orlando TRACON
Wed 11:56:20 PM 28.2844 -80.7089 168° South 160 184 6,000  Level Miami Center
Wed 11:57:20 PM 28.2431 -80.6933 162° South 166 191 6,000  Level Miami Center
Wed 11:58:21 PM 28.1997 -80.6753 160° South 160 184 6,000 49 Level Miami Center
Wed 11:59:22 PM 28.1586 -80.6575 159° South 160 184 6,100 50 Climbing Miami Center
Thu 12:00:21 AM 28.1131 -80.6419 163° South 165 190 6,100  Level Miami Center
Thu 12:01:21 AM 28.0758 -80.6289 163° South 165 190 6,100 -50 Level Miami Center
Thu 12:02:21 AM 28.0344 -80.6133 162° South 165 190 6,000 -50 Descending Miami Center
Thu 12:03:20 AM 27.9925 -80.6283 198° South 154 177 6,000  Level Miami Center
Thu 12:04:22 AM 27.9561 -80.6556 213° Southwest 154 177 6,000 50 Level Miami Center
Thu 12:05:19 AM 27.9200 -80.6800 211° Southwest 161 185 6,100  Climbing Miami Center
Thu 12:06:20 AM 27.8839 -80.7022 209° Southwest 161 185 6,000 -50 Descending Miami Center
Thu 12:07:19 AM 27.8478 -80.7247 209° Southwest 161 185 6,000  Level Miami Center
Thu 12:08:19 AM 27.8056 -80.7514 209° Southwest 161 185 6,000  Level Miami Center
Thu 12:09:19 AM 27.7672 -80.7758 209° Southwest 161 185 6,000  Level Miami Center
Thu 12:11:00 AM 27.7197 -80.8267 207° Southwest  Level FlightAware Approximate
Thu 12:18:00 AM 27.4755 -80.9648 207° Southwest  Level FlightAware Approximate
Thu 12:19:00 AM 27.4406 -80.9844 207° Southwest  Level FlightAware Approximate
Thu 12:20:00 AM 27.4057 -81.0041 207° Southwest  Level FlightAware Approximate
Thu 12:21:00 AM 27.3714 -81.0250 212° Southwest  Level FlightAware Approximate
Thu 12:22:00 AM 27.3381 -81.0480 212° Southwest  Level FlightAware Approximate
Thu 12:23:00 AM 27.3049 -81.0710 212° Southwest  Level FlightAware Approximate
Thu 12:24:00 AM 27.2717 -81.0940 212° Southwest  Level FlightAware Approximate
Thu 12:25:00 AM 27.2384 -81.1171 212° Southwest  Level FlightAware Approximate
Thu 12:26:00 AM 27.2052 -81.1400 212° Southwest  Level FlightAware Approximate
Thu 12:27:00 AM 27.1720 -81.1630 212° Southwest  Level FlightAware Approximate
Thu 12:28:00 AM 27.1373 -81.1832 207° Southwest  Level FlightAware Approximate
Thu 12:29:00 AM 27.1024 -81.2029 207° Southwest  Level FlightAware Approximate
Thu 12:30:00 AM 27.0676 -81.2225 207° Southwest  Level FlightAware Approximate
Thu 12:31:00 AM 27.0327 -81.2421 207° Southwest  Level FlightAware Approximate
Thu 12:32:00 AM 26.9978 -81.2617 207° Southwest  Level FlightAware Approximate
Thu 12:33:00 AM 26.9629 -81.2814 207° Southwest  Level FlightAware Approximate
Thu 12:34:00 AM 26.9280 -81.3009 207° Southwest  Level FlightAware Approximate
Thu 12:35:00 AM 26.8932 -81.3207 208° Southwest  Level FlightAware Approximate
Thu 12:36:00 AM 26.8586 -81.3409 208° Southwest  Level FlightAware Approximate
Thu 12:37:00 AM 26.8240 -81.3612 208° Southwest  Level FlightAware Approximate
Thu 12:38:00 AM 26.7894 -81.3814 208° Southwest  Level FlightAware Approximate
Thu 12:39:00 AM 26.7548 -81.4016 208° Southwest  Level FlightAware Approximate
Thu 12:40:00 AM 26.7202 -81.4218 208° Southwest  Level FlightAware Approximate
Thu 12:41:00 AM 26.6856 -81.4420 208° Southwest  Level FlightAware Approximate
Thu 12:42:00 AM 26.6510 -81.4622 208° Southwest  Level FlightAware Approximate
Thu 12:43:00 AM 26.6164 -81.4823 208° Southwest  Level FlightAware Approximate
Thu 12:44:00 AM 26.5818 -81.5025 208° Southwest  Level FlightAware Approximate
Thu 12:45:00 AM 26.5471 -81.5226 207° Southwest  Level FlightAware Approximate
Thu 12:46:00 AM 26.5125 -81.5427 207° Southwest  Level FlightAware Approximate
Thu 12:47:00 AM 26.4786 -81.5643 211° Southwest  Level FlightAware Approximate
Thu 12:48:00 AM 26.4449 -81.5863 207° Southwest  Level FlightAware Approximate
Thu 12:49:00 AM 26.4102 -81.6061 207° Southwest  Level FlightAware Approximate
Thu 12:50:00 AM 26.3754 -81.6260 207° Southwest  Level FlightAware Approximate
Thu 12:51:00 AM 26.3407 -81.6459 207° Southwest  Level FlightAware Approximate
Thu 12:52:00 AM 26.3060 -81.6657 207° Southwest  Level FlightAware Approximate
Thu 12:53:00 AM 26.2712 -81.6855 207° Southwest  Level FlightAware Approximate
Thu 12:54:00 AM 26.2365 -81.7054 207° Southwest  Level FlightAware Approximate
Thu 12:55:00 AM 26.2028 -81.7271 214° Southwest  Level FlightAware Approximate
Thu 12:56:00 AM 26.1704 -81.7514 214° Southwest  Level FlightAware Approximate
Thu 12:57:00 AM 26.1500 -81.7667 214° Southwest  Level FlightAware Approximate
Thu 12:58:00 AM 26.1524 -81.7756 214° Southwest  Level Estimated
Thu 12:59:00 AM 26.1524 -81.7756 214° Southwest  Level Estimated
Thu 01:00:00 AM 26.1524 -81.7756 214° Southwest  Level Estimated
Thu 01:01:00 AM 26.1524 -81.7756 214° Southwest  Level Estimated
Thu 01:02:00 AM 26.1524 -81.7756 214° Southwest  Level Estimated
Thu 01:03:00 AM 26.1524 -81.7756 214° Southwest  Level Estimated
Thu 01:04:00 AM 26.1524 -81.7756 214° Southwest  Level Estimated
Thu 01:05:00 AM 26.1524 -81.7756 214° Southwest  Level Estimated
Thu 01:06:00 AM 26.1524 -81.7756 214° Southwest  Level Estimated
Thu 01:07:00 AM 26.1524 -81.7756 214° Southwest  Level Estimated
Thu 01:08:00 AM 26.1524 -81.7756 214° Southwest  Level Estimated
Thu 01:09:00 AM 26.1524 -81.7756 214° Southwest  Level Estimated
Thu 01:10:00 AM 26.1524 -81.7756 214° Southwest  Level Estimated
Thu 01:11:00 AM 26.1524 -81.7756 214° Southwest  Level Estimated
Thu 01:12:00 AM 26.1524 -81.7756 214° Southwest  Level Estimated

Login

Don't have an account? Register now (free) for customized features, flight alerts, and more!